PrinceSS Juana K — HPFV — position and weather

sailwx.info

Track history (hours):
 
Tides and Currents Weather Stations Pressure Air Temp Water Temp Dewpoint Dewpoint Depression Visibility Wind Speed Wind Dir Waves Ship Positions

PrinceSS Juana K

Last reported at 2014-Aug-22 21:33 UTC. Time now 2014-Aug-22 21:41 UTC.
Position N 37°16' E 026°02'.

Length 145 m; draft 7.4 m.

Type: Cargo ship. MMSI: 352982000.

Date/timePositionNaut miles runAvg speedWind from/ knotsBaromVisibWave heightAir tempDewpointWater temp
2014-Aug-22 21:33N 37°16' E 026°02'8 8.4
2014-Aug-22 20:33N 37°23' E 025°57'8 8.3
2014-Aug-22 19:33N 37°31' E 025°53'9 8.9
2014-Aug-22 18:33N 37°40' E 025°52'5 3.9
2014-Aug-22 17:20N 37°45' E 025°51'0 0.3
2014-Aug-22 16:32N 37°45' E 025°50'1 0.4
2014-Aug-22 14:33N 37°44' E 025°50'1 0.3
2014-Aug-22 12:31N 37°44' E 025°49'0 0.3
2014-Aug-22 11:23N 37°43' E 025°49'0 0.3
2014-Aug-22 10:28N 37°43' E 025°49'0 0.2
2014-Aug-22 09:31N 37°43' E 025°49'1 0.2
2014-Aug-22 06:30N 37°42' E 025°49'1 0.8
2014-Aug-22 05:31N 37°42' E 025°48'2 2.0
2014-Aug-22 04:33N 37°42' E 025°51'19 8.2
2014-Aug-22 02:18N 38°01' E 025°46'6 8.2
2014-Aug-22 01:33N 38°07' E 025°45'27 8.1
2014-Aug-21 22:14N 38°33' E 025°42'81 8.2
2014-Aug-21 12:24N 39°54' E 025°53'8 8.3
2014-Aug-21 11:23N 40°00' E 025°60'7 8.7
2014-Aug-21 10:33N 40°01' E 026°09'27 8.5
2014-Aug-21 07:23N 40°19' E 026°36'8 8.6
2014-Aug-21 06:24N 40°25' E 026°43'10 8.4
2014-Aug-21 05:16N 40°30' E 026°54'6 8.5
2014-Aug-21 04:31N 40°32' E 027°02'76 8.2
2014-Aug-20 19:19N 40°53' E 028°38'13 7.3
2014-Aug-20 17:33N 40°57' E 028°54'0 0.1
2014-Aug-20 16:31N 40°57' E 028°54'0 0.0
2014-Aug-20 15:33N 40°57' E 028°54'0 0.1
2014-Aug-20 14:33N 40°57' E 028°54'0 0.0
2014-Aug-20 13:13N 40°57' E 028°54'0 0.0
2014-Aug-20 12:31N 40°57' E 028°54'0 0.0
2014-Aug-20 10:31N 40°57' E 028°54'0 0.0
2014-Aug-20 09:32N 40°57' E 028°54'0 0.1
2014-Aug-20 08:32N 40°57' E 028°54'0 0.0
2014-Aug-20 07:29N 40°57' E 028°54'0 0.0
2014-Aug-20 06:32N 40°57' E 028°54'0 0.0
2014-Aug-20 05:33N 40°57' E 028°54'0 0.0
2014-Aug-20 04:27N 40°57' E 028°54'0 0.0
2014-Aug-20 03:32N 40°57' E 028°54'0 0.0
2014-Aug-20 02:32N 40°57' E 028°54'0 0.0
2014-Aug-20 01:30N 40°57' E 028°54'3 3.1
2014-Aug-20 00:26N 40°58' E 028°58'36 2.6
2014-Aug-19 10:17N 41°29' E 029°24'351 7.8
2014-Aug-17 13:19N 44°40' E 036°06'  
Track history (hours):
 
Tides and Currents Weather Stations Pressure Air Temp Water Temp Dewpoint Dewpoint Depression Visibility Wind Speed Wind Dir Waves Ship Positions

PrinceSS Juana K

Last reported at 2014-Aug-22 21:33 UTC. Time now 2014-Aug-22 21:41 UTC.
Position N 37°16' E 026°02'.

Length 145 m; draft 7.4 m.

Type: Cargo ship. MMSI: 352982000.

Date/timePositionNaut miles runAvg speedWind from/ knotsBaromVisibWave heightAir tempDewpointWater temp
2014-Aug-22 21:33N 37°16' E 026°02'8 8.4
2014-Aug-22 20:33N 37°23' E 025°57'8 8.3
2014-Aug-22 19:33N 37°31' E 025°53'9 8.9
2014-Aug-22 18:33N 37°40' E 025°52'5 3.9
2014-Aug-22 17:20N 37°45' E 025°51'0 0.3
2014-Aug-22 16:32N 37°45' E 025°50'1 0.4
2014-Aug-22 14:33N 37°44' E 025°50'1 0.3
2014-Aug-22 12:31N 37°44' E 025°49'0 0.3
2014-Aug-22 11:23N 37°43' E 025°49'0 0.3
2014-Aug-22 10:28N 37°43' E 025°49'0 0.2
2014-Aug-22 09:31N 37°43' E 025°49'1 0.2
2014-Aug-22 06:30N 37°42' E 025°49'1 0.8
2014-Aug-22 05:31N 37°42' E 025°48'2 2.0
2014-Aug-22 04:33N 37°42' E 025°51'19 8.2
2014-Aug-22 02:18N 38°01' E 025°46'6 8.2
2014-Aug-22 01:33N 38°07' E 025°45'27 8.1
2014-Aug-21 22:14N 38°33' E 025°42'81 8.2
2014-Aug-21 12:24N 39°54' E 025°53'8 8.3
2014-Aug-21 11:23N 40°00' E 025°60'7 8.7
2014-Aug-21 10:33N 40°01' E 026°09'27 8.5
2014-Aug-21 07:23N 40°19' E 026°36'8 8.6
2014-Aug-21 06:24N 40°25' E 026°43'10 8.4
2014-Aug-21 05:16N 40°30' E 026°54'6 8.5
2014-Aug-21 04:31N 40°32' E 027°02'76 8.2
2014-Aug-20 19:19N 40°53' E 028°38'13 7.3
2014-Aug-20 17:33N 40°57' E 028°54'0 0.1
2014-Aug-20 16:31N 40°57' E 028°54'0 0.0
2014-Aug-20 15:33N 40°57' E 028°54'0 0.1
2014-Aug-20 14:33N 40°57' E 028°54'0 0.0
2014-Aug-20 13:13N 40°57' E 028°54'0 0.0
2014-Aug-20 12:31N 40°57' E 028°54'0 0.0
2014-Aug-20 10:31N 40°57' E 028°54'0 0.0
2014-Aug-20 09:32N 40°57' E 028°54'0 0.1
2014-Aug-20 08:32N 40°57' E 028°54'0 0.0
2014-Aug-20 07:29N 40°57' E 028°54'0 0.0
2014-Aug-20 06:32N 40°57' E 028°54'0 0.0
2014-Aug-20 05:33N 40°57' E 028°54'0 0.0
2014-Aug-20 04:27N 40°57' E 028°54'0 0.0
2014-Aug-20 03:32N 40°57' E 028°54'0 0.0
2014-Aug-20 02:32N 40°57' E 028°54'0 0.0
2014-Aug-20 01:30N 40°57' E 028°54'3 3.1
2014-Aug-20 00:26N 40°58' E 028°58'36 2.6
2014-Aug-19 10:17N 41°29' E 029°24'351 7.8
2014-Aug-17 13:19N 44°40' E 036°06'  

Dump ship's entire track history